Time;durP1;ratioP1;P1;durP2;ratioP2;P2;SDS_P1;SDS_P2;PMS_P1;PMS_P2;Temp;Humidity;BMP_temperature;BMP_pressure;BME280_temperature;BME280_humidity;BME280_pressure;Samples;Min_cycle;Max_cycle;Signal;HPM_P1;HPM_P2
2023/03/31 00:02:12;;;;;;;4.60;2.25;;;13.10;99.90;;;;;;5006978;28;20198;-66
2023/03/31 00:04:44;;;;;;;12.40;2.78;;;13.10;99.90;;;;;;4995440;28;20186;-66
2023/03/31 00:07:15;;;;;;;12.15;3.15;;;13.10;99.90;;;;;;5004496;28;20330;-68
2023/03/31 00:09:44;;;;;;;9.23;2.70;;;13.10;99.90;;;;;;4996096;28;20661;-65
2023/03/31 00:12:12;;;;;;;9.35;2.90;;;13.10;99.90;;;;;;5023876;28;20219;-65
2023/03/31 00:14:38;;;;;;;5.28;1.65;;;13.10;99.90;;;;;;5044326;28;20543;-68
2023/03/31 00:17:04;;;;;;;12.23;2.97;;;13.00;99.90;;;;;;5005195;28;20231;-65
2023/03/31 00:19:32;;;;;;;10.48;2.72;;;13.00;99.90;;;;;;4997174;28;20192;-67
2023/03/31 00:22:01;;;;;;;5.32;2.22;;;12.90;99.90;;;;;;5006525;28;20183;-65
2023/03/31 00:24:31;;;;;;;9.25;2.90;;;12.90;99.90;;;;;;4998639;28;20195;-65
2023/03/31 00:27:03;;;;;;;7.30;2.88;;;12.90;99.90;;;;;;5005891;28;20187;-66
2023/03/31 00:29:32;;;;;;;5.65;2.30;;;12.90;99.90;;;;;;5001400;28;20210;-66
2023/03/31 00:31:58;;;;;;;13.05;2.47;;;12.80;99.90;;;;;;5009791;28;20187;-66
2023/03/31 00:34:25;;;;;;;10.93;2.28;;;12.70;99.90;;;;;;5004045;28;20184;-65
2023/03/31 00:36:55;;;;;;;7.60;1.92;;;12.70;99.90;;;;;;5006585;28;20191;-66
2023/03/31 00:39:21;;;;;;;8.27;2.03;;;12.70;99.90;;;;;;5009864;28;20190;-65
2023/03/31 00:41:48;;;;;;;7.28;2.15;;;12.60;99.90;;;;;;5007232;28;20187;-66
2023/03/31 00:44:21;;;;;;;9.07;1.80;;;12.50;99.90;;;;;;5011106;28;20271;-66
2023/03/31 00:47:16;;;;;;;5.32;2.13;;;12.40;99.90;;;;;;5010283;28;20203;-67
2023/03/31 00:49:46;;;;;;;4.82;1.58;;;12.40;99.90;;;;;;5000825;28;20277;-66
2023/03/31 00:52:17;;;;;;;3.33;1.88;;;12.40;99.90;;;;;;5009380;28;21098;-64
2023/03/31 00:54:46;;;;;;;9.30;2.90;;;12.40;99.90;;;;;;5003113;28;20242;-65
2023/03/31 00:57:13;;;;;;;8.80;2.55;;;12.20;99.90;;;;;;4997904;28;20188;-65
2023/03/31 00:59:45;;;;;;;7.82;2.05;;;12.20;99.90;;;;;;5011236;28;20278;-64
2023/03/31 01:02:13;;;;;;;12.63;2.65;;;12.20;99.90;;;;;;5007420;28;20184;-64
2023/03/31 01:04:45;;;;;;;4.57;2.28;;;12.30;99.90;;;;;;5011020;28;20180;-64
2023/03/31 01:07:22;;;;;;;6.43;1.77;;;12.30;99.90;;;;;;5003951;28;20199;-64
2023/03/31 01:09:53;;;;;;;6.93;2.58;;;12.40;99.90;;;;;;5007351;28;20235;-64
2023/03/31 01:12:21;;;;;;;4.50;2.45;;;12.30;99.90;;;;;;5000326;28;20641;-65
2023/03/31 01:14:49;;;;;;;6.63;2.97;;;12.30;99.90;;;;;;5010195;28;20645;-64
2023/03/31 01:17:17;;;;;;;8.82;2.70;;;12.40;99.90;;;;;;4999487;28;20609;-64
2023/03/31 01:20:12;;;;;;;5.25;2.83;;;12.40;99.90;;;;;;5014118;28;20188;-64
2023/03/31 01:23:16;;;;;;;6.20;3.00;;;12.40;99.90;;;;;;5001236;28;20184;-64
2023/03/31 01:26:15;;;;;;;9.77;3.22;;;12.40;99.90;;;;;;5011142;28;20230;-64
2023/03/31 01:29:07;;;;;;;8.73;2.20;;;12.40;99.90;;;;;;5005509;28;20209;-64
2023/03/31 01:31:54;;;;;;;10.55;2.15;;;12.30;99.90;;;;;;5026553;28;20212;-65
2023/03/31 01:34:47;;;;;;;5.47;1.90;;;12.20;99.90;;;;;;5009201;28;20194;-65
2023/03/31 01:37:15;;;;;;;8.80;2.65;;;12.20;99.90;;;;;;5000657;28;20575;-64
2023/03/31 01:40:07;;;;;;;3.83;1.77;;;12.30;99.90;;;;;;5002649;28;20184;-64
2023/03/31 01:42:56;;;;;;;4.30;2.20;;;12.40;99.90;;;;;;5003494;28;20242;-64
2023/03/31 01:45:22;;;;;;;1.67;1.50;;;12.20;99.90;;;;;;5001120;28;20197;-65
2023/03/31 01:47:57;;;;;;;12.30;2.75;;;12.20;99.90;;;;;;5030866;28;20229;-65
2023/03/31 01:50:44;;;;;;;4.88;1.65;;;12.20;99.90;;;;;;5007735;28;20603;-65
2023/03/31 01:53:12;;;;;;;10.35;2.00;;;12.20;99.90;;;;;;5009518;28;20233;-64
2023/03/31 01:55:44;;;;;;;7.43;1.90;;;12.30;99.90;;;;;;5003518;28;20235;-64
2023/03/31 01:58:37;;;;;;;6.22;1.98;;;12.30;99.90;;;;;;5003139;28;20184;-64
2023/03/31 02:01:19;;;;;;;4.85;1.95;;;12.30;99.90;;;;;;5013487;28;20202;-64
2023/03/31 02:03:52;;;;;;;6.78;1.65;;;12.20;99.90;;;;;;5005897;28;20180;-64
2023/03/31 02:06:23;;;;;;;7.93;1.77;;;12.20;99.90;;;;;;5002436;28;20179;-67
2023/03/31 02:08:57;;;;;;;3.35;1.60;;;12.20;99.90;;;;;;5014301;28;20260;-64
2023/03/31 02:11:24;;;;;;;4.88;1.55;;;12.20;99.90;;;;;;5002206;28;20270;-65
2023/03/31 02:13:54;;;;;;;3.53;1.75;;;12.20;99.90;;;;;;5008270;28;20183;-65
2023/03/31 02:16:25;;;;;;;8.40;1.77;;;12.30;99.90;;;;;;5007543;28;20614;-66
2023/03/31 02:19:01;;;;;;;1.83;1.73;;;12.30;99.90;;;;;;5005216;28;20270;-65
2023/03/31 02:21:37;;;;;;;4.75;1.40;;;12.40;99.90;;;;;;5005072;28;20321;-68
2023/03/31 02:24:09;;;;;;;1.30;1.20;;;12.30;99.90;;;;;;5011346;28;20221;-65
2023/03/31 02:26:43;;;;;;;3.08;1.30;;;12.30;99.90;;;;;;5008265;28;20180;-65
2023/03/31 02:29:09;;;;;;;5.63;1.83;;;12.20;99.90;;;;;;5013237;28;20215;-64
2023/03/31 02:31:50;;;;;;;4.97;1.60;;;12.20;99.90;;;;;;5007876;28;20256;-67
2023/03/31 02:34:16;;;;;;;9.20;1.40;;;12.00;99.90;;;;;;5009372;28;20677;-64
2023/03/31 02:36:44;;;;;;;1.70;1.02;;;12.00;99.90;;;;;;5011046;28;20230;-65
2023/03/31 02:39:22;;;;;;;5.70;1.30;;;12.00;99.90;;;;;;5012919;28;20628;-64
2023/03/31 02:41:48;;;;;;;2.15;0.77;;;12.00;99.90;;;;;;5012774;28;20187;-65
2023/03/31 02:44:16;;;;;;;3.97;1.15;;;12.00;99.90;;;;;;5011983;28;20663;-65
2023/03/31 02:46:42;;;;;;;3.20;1.45;;;12.00;99.90;;;;;;5007991;28;20600;-64
2023/03/31 02:49:10;;;;;;;5.53;1.60;;;12.10;99.90;;;;;;5009484;28;20322;-64
2023/03/31 02:51:45;;;;;;;7.10;1.35;;;12.20;99.90;;;;;;5008825;28;20195;-64
2023/03/31 02:54:55;;;;;;;1.65;1.25;;;12.30;99.90;;;;;;5009130;28;20521;-64
2023/03/31 02:57:34;;;;;;;4.53;1.52;;;12.20;99.90;;;;;;5002659;28;20707;-64
2023/03/31 03:00:30;;;;;;;1.83;1.10;;;12.10;99.90;;;;;;5006665;28;20210;-63
2023/03/31 03:03:35;;;;;;;3.28;1.40;;;12.20;99.90;;;;;;4995899;28;20184;-65
2023/03/31 03:06:26;;;;;;;6.40;1.20;;;12.20;99.90;;;;;;5007879;28;20595;-65
2023/03/31 03:09:28;;;;;;;3.45;1.35;;;12.10;99.90;;;;;;5004919;28;20215;-65
2023/03/31 03:12:12;;;;;;;5.18;1.90;;;12.00;99.90;;;;;;4993631;28;20191;-65
2023/03/31 03:14:53;;;;;;;2.67;1.90;;;12.10;99.90;;;;;;5007795;28;20179;-65
2023/03/31 03:17:50;;;;;;;4.53;1.30;;;12.20;99.90;;;;;;5005970;28;20766;-64
2023/03/31 03:20:19;;;;;;;4.15;1.08;;;12.20;99.90;;;;;;5022210;28;20564;-65
2023/03/31 03:22:44;;;;;;;2.65;1.48;;;12.10;99.90;;;;;;5007014;28;20464;-64
2023/03/31 03:25:13;;;;;;;8.37;1.97;;;12.00;99.90;;;;;;5009792;28;20194;-65
2023/03/31 03:27:39;;;;;;;5.57;1.63;;;12.00;99.90;;;;;;5002293;28;20203;-65
2023/03/31 03:30:08;;;;;;;4.82;1.60;;;12.00;99.90;;;;;;5026691;28;20230;-65
2023/03/31 03:32:34;;;;;;;6.33;2.20;;;11.90;99.90;;;;;;5011683;28;20183;-65
2023/03/31 03:35:01;;;;;;;2.92;2.38;;;11.90;99.90;;;;;;5008120;28;20266;-65
2023/03/31 03:37:28;;;;;;;6.90;2.55;;;11.90;99.90;;;;;;5009020;28;20180;-65
2023/03/31 03:39:53;;;;;;;5.25;1.70;;;11.90;99.90;;;;;;4998606;28;20270;-65
2023/03/31 03:42:19;;;;;;;5.25;1.48;;;11.90;99.90;;;;;;5012271;28;20266;-65
2023/03/31 03:44:45;;;;;;;8.57;1.75;;;11.80;99.90;;;;;;5010518;28;20283;-65
2023/03/31 03:47:10;;;;;;;2.13;1.73;;;11.80;99.90;;;;;;5004905;28;20546;-65
2023/03/31 03:49:36;;;;;;;2.22;2.00;;;11.80;99.90;;;;;;5007885;28;20692;-64
2023/03/31 03:52:02;;;;;;;2.77;1.53;;;11.90;99.90;;;;;;5008957;28;20211;-64
2023/03/31 03:54:28;;;;;;;5.07;1.50;;;11.70;99.90;;;;;;4996736;28;20184;-64
2023/03/31 03:56:54;;;;;;;5.80;1.33;;;11.60;99.90;;;;;;5006709;28;20245;-64
2023/03/31 03:59:19;;;;;;;4.13;1.40;;;11.50;99.90;;;;;;5001166;28;20257;-64
2023/03/31 04:01:45;;;;;;;6.95;1.30;;;11.50;99.90;;;;;;4991753;28;20645;-65
2023/03/31 04:04:11;;;;;;;2.15;1.25;;;11.50;99.90;;;;;;5001121;28;20676;-63
2023/03/31 04:06:36;;;;;;;1.37;1.13;;;11.40;99.90;;;;;;5011317;28;20183;-61
2023/03/31 04:09:03;;;;;;;3.80;1.10;;;11.30;99.90;;;;;;4999039;28;20207;-63
2023/03/31 04:11:29;;;;;;;3.37;1.07;;;11.20;99.90;;;;;;5006534;28;20657;-63
2023/03/31 04:13:55;;;;;;;4.07;1.77;;;11.10;99.90;;;;;;4999162;28;20188;-63
2023/03/31 04:16:21;;;;;;;1.97;1.30;;;11.10;99.90;;;;;;5004384;28;20718;-63
2023/03/31 04:18:47;;;;;;;1.23;0.77;;;11.10;99.90;;;;;;4999705;28;20273;-63
2023/03/31 04:21:21;;;;;;;1.07;1.00;;;11.20;99.90;;;;;;5006474;28;20640;-64
2023/03/31 04:23:57;;;;;;;0.83;0.83;;;11.20;99.90;;;;;;5005227;28;20179;-64
2023/03/31 04:26:29;;;;;;;1.27;0.90;;;11.20;99.90;;;;;;5006624;28;20524;-63
2023/03/31 04:28:59;;;;;;;0.70;0.70;;;11.20;99.90;;;;;;5010869;28;20584;-64
2023/03/31 04:31:25;;;;;;;0.80;0.70;;;11.20;99.90;;;;;;5010863;28;20179;-64
2023/03/31 04:33:54;;;;;;;0.70;0.70;;;11.10;99.90;;;;;;5002299;28;20198;-65
2023/03/31 04:36:21;;;;;;;2.83;0.70;;;11.20;99.90;;;;;;4998513;28;20242;-64
2023/03/31 04:38:53;;;;;;;0.97;0.93;;;11.20;99.90;;;;;;5003963;28;20265;-69
2023/03/31 04:41:23;;;;;;;2.10;1.30;;;11.20;99.90;;;;;;5000242;28;20188;-65
2023/03/31 04:43:49;;;;;;;3.90;1.00;;;11.20;99.90;;;;;;4999354;28;20183;-64
2023/03/31 04:46:15;;;;;;;2.63;1.30;;;11.10;99.90;;;;;;5002205;28;20696;-64
2023/03/31 04:48:41;;;;;;;4.03;2.00;;;11.10;99.90;;;;;;5008896;28;20274;-64
2023/03/31 04:51:08;;;;;;;2.60;1.37;;;11.20;99.90;;;;;;5003203;28;20175;-64
2023/03/31 04:53:34;;;;;;;1.47;1.40;;;11.20;99.90;;;;;;5005819;28;20176;-64
2023/03/31 04:56:00;;;;;;;3.00;2.07;;;11.20;99.90;;;;;;5011542;28;20207;-64
2023/03/31 04:58:25;;;;;;;4.27;2.30;;;11.20;99.90;;;;;;5011957;28;20238;-64
2023/03/31 05:00:52;;;;;;;5.97;1.83;;;11.20;99.90;;;;;;5008319;28;20228;-66
2023/03/31 05:03:18;;;;;;;3.50;1.70;;;11.20;99.90;;;;;;5006704;28;20208;-64
2023/03/31 05:05:43;;;;;;;6.90;2.47;;;11.30;99.90;;;;;;5013477;28;20191;-64
2023/03/31 05:08:09;;;;;;;5.13;2.10;;;11.30;99.90;;;;;;5006414;28;20215;-62
2023/03/31 05:10:35;;;;;;;3.67;2.23;;;11.30;99.90;;;;;;5013253;28;20719;-63
2023/03/31 05:13:01;;;;;;;4.93;1.93;;;11.40;99.90;;;;;;5009081;28;20193;-63
2023/03/31 05:15:27;;;;;;;6.13;2.87;;;11.40;99.90;;;;;;5012231;28;20262;-63
2023/03/31 05:17:53;;;;;;;4.23;1.93;;;11.40;99.90;;;;;;5007226;28;20266;-63
2023/03/31 05:20:19;;;;;;;4.70;2.90;;;11.40;99.90;;;;;;5009017;28;20195;-63
2023/03/31 05:22:45;;;;;;;5.30;2.70;;;11.40;99.90;;;;;;5009443;28;20310;-63
2023/03/31 05:25:17;;;;;;;10.27;2.97;;;11.40;99.90;;;;;;5010581;28;20245;-63
2023/03/31 05:27:46;;;;;;;6.83;2.43;;;11.40;99.90;;;;;;5001749;28;20176;-64
2023/03/31 05:30:13;;;;;;;12.77;2.63;;;11.40;99.90;;;;;;5008446;28;20729;-64
2023/03/31 05:32:39;;;;;;;6.77;3.03;;;11.50;99.90;;;;;;5003275;28;20263;-63
2023/03/31 05:35:05;;;;;;;8.70;3.27;;;11.50;99.90;;;;;;5013884;28;20194;-63
2023/03/31 05:37:31;;;;;;;8.77;2.33;;;11.60;99.90;;;;;;5014564;28;20219;-64
2023/03/31 05:39:56;;;;;;;9.07;2.30;;;11.50;99.90;;;;;;5009033;28;20229;-64
2023/03/31 05:42:22;;;;;;;12.00;3.07;;;11.50;99.90;;;;;;5013886;28;20183;-63
2023/03/31 05:44:48;;;;;;;4.53;2.05;;;11.60;99.90;;;;;;5001348;28;20180;-64
2023/03/31 05:47:14;;;;;;;6.87;4.23;;;11.70;99.90;;;;;;5012298;28;20237;-63
2023/03/31 05:49:40;;;;;;;7.70;2.73;;;11.60;99.90;;;;;;5028591;28;20222;-65
2023/03/31 05:52:07;;;;;;;5.68;2.25;;;11.60;99.90;;;;;;5012991;28;20645;-65
2023/03/31 05:54:33;;;;;;;5.30;2.03;;;11.60;99.90;;;;;;5002549;28;20705;-65
2023/03/31 05:56:59;;;;;;;7.43;2.55;;;11.60;99.90;;;;;;5011472;28;20258;-65
2023/03/31 05:59:25;;;;;;;6.53;2.38;;;11.60;99.90;;;;;;5000330;28;20219;-65
2023/03/31 06:01:50;;;;;;;11.45;3.47;;;11.70;99.90;;;;;;5009563;28;20325;-67
2023/03/31 06:04:16;;;;;;;7.75;2.75;;;11.70;99.90;;;;;;5005593;28;20187;-67
2023/03/31 06:06:43;;;;;;;7.38;2.90;;;11.70;99.90;;;;;;4997423;28;20188;-64
2023/03/31 06:09:11;;;;;;;10.13;2.70;;;11.70;99.90;;;;;;4999252;28;20211;-65
2023/03/31 06:11:37;;;;;;;7.53;2.40;;;11.70;99.90;;;;;;4996472;28;20641;-65
2023/03/31 06:14:03;;;;;;;5.22;2.20;;;11.70;99.90;;;;;;4999870;28;20180;-66
2023/03/31 06:16:29;;;;;;;10.93;3.05;;;11.70;99.90;;;;;;5008601;28;20235;-65
2023/03/31 06:18:55;;;;;;;7.05;2.42;;;11.80;99.90;;;;;;5002615;28;20234;-66
2023/03/31 06:21:21;;;;;;;4.18;2.78;;;11.80;99.90;;;;;;5009061;28;20270;-66
2023/03/31 06:23:47;;;;;;;6.00;2.30;;;11.90;99.90;;;;;;4998509;28;20253;-65
2023/03/31 06:26:17;;;;;;;10.45;3.05;;;11.90;99.90;;;;;;5013086;28;20338;-66
2023/03/31 06:28:44;;;;;;;5.75;2.92;;;12.00;99.90;;;;;;5009401;28;20208;-66
2023/03/31 06:31:13;;;;;;;8.38;3.00;;;12.00;99.90;;;;;;5001386;28;20253;-66
2023/03/31 06:33:40;;;;;;;7.07;3.15;;;12.00;99.90;;;;;;5001710;28;20175;-65
2023/03/31 06:36:07;;;;;;;10.98;3.60;;;12.10;99.90;;;;;;5013571;28;20270;-65
2023/03/31 06:38:35;;;;;;;8.15;2.38;;;12.20;99.90;;;;;;4996697;28;20193;-65
2023/03/31 06:41:01;;;;;;;11.18;3.35;;;12.20;99.90;;;;;;5006464;28;20201;-65
2023/03/31 06:43:27;;;;;;;7.13;5.68;;;12.30;99.90;;;;;;4996490;28;20649;-66
2023/03/31 06:45:53;;;;;;;7.15;2.67;;;12.30;99.90;;;;;;5012826;28;20190;-64
2023/03/31 06:48:19;;;;;;;5.50;2.78;;;12.30;99.90;;;;;;5010411;28;20215;-67
2023/03/31 06:50:45;;;;;;;9.10;2.60;;;12.40;99.90;;;;;;5008574;28;20532;-64
2023/03/31 06:53:11;;;;;;;11.82;2.75;;;12.50;99.90;;;;;;5010669;28;20246;-64
2023/03/31 06:55:37;;;;;;;6.95;3.50;;;12.60;99.90;;;;;;5008572;28;20190;-64
2023/03/31 06:58:04;;;;;;;8.15;2.70;;;12.70;99.90;;;;;;5006405;28;20247;-64
2023/03/31 07:00:30;;;;;;;9.65;2.45;;;12.70;99.90;;;;;;5008941;28;20186;-65
2023/03/31 07:02:55;;;;;;;10.52;2.67;;;12.90;99.90;;;;;;5004703;28;20640;-66
2023/03/31 07:05:28;;;;;;;8.65;2.72;;;13.00;99.90;;;;;;5005364;28;20193;-64
2023/03/31 07:07:55;;;;;;;9.13;2.97;;;13.00;99.90;;;;;;5010977;28;20230;-65
2023/03/31 07:10:21;;;;;;;7.60;2.65;;;13.00;99.90;;;;;;5016003;28;20191;-64
2023/03/31 07:12:47;;;;;;;16.77;4.13;;;12.90;99.90;;;;;;5008428;28;20188;-64
2023/03/31 07:15:13;;;;;;;9.00;2.85;;;12.90;99.90;;;;;;5010542;28;20632;-64
2023/03/31 07:17:42;;;;;;;9.88;3.47;;;12.80;99.90;;;;;;5011421;28;20281;-64
2023/03/31 07:20:13;;;;;;;10.23;3.65;;;12.90;99.90;;;;;;5009643;28;20675;-65
2023/03/31 07:22:40;;;;;;;7.03;2.35;;;12.90;99.90;;;;;;5014596;28;20178;-65
2023/03/31 07:25:07;;;;;;;6.85;3.10;;;12.90;99.90;;;;;;5041406;28;20190;-65
2023/03/31 07:27:33;;;;;;;8.52;3.20;;;13.00;99.90;;;;;;4996569;28;20258;-65
2023/03/31 07:29:59;;;;;;;10.18;3.65;;;13.10;99.90;;;;;;5010632;28;20298;-63
2023/03/31 07:32:25;;;;;;;5.72;1.90;;;13.20;99.90;;;;;;5013537;28;20179;-62
2023/03/31 07:34:50;;;;;;;6.78;2.67;;;13.10;99.90;;;;;;5001285;28;20199;-63
2023/03/31 07:37:16;;;;;;;12.90;2.58;;;13.10;99.90;;;;;;5005859;28;20624;-64
2023/03/31 07:39:42;;;;;;;6.55;2.50;;;13.00;99.90;;;;;;5027063;28;20281;-66
2023/03/31 07:42:07;;;;;;;11.77;2.25;;;13.00;99.90;;;;;;5015825;28;20179;-61
2023/03/31 07:44:34;;;;;;;10.30;4.80;;;12.90;99.90;;;;;;5011766;28;20721;-63
2023/03/31 07:47:03;;;;;;;10.32;2.53;;;12.70;99.90;;;;;;5021119;28;20703;-62
2023/03/31 07:49:30;;;;;;;8.32;2.90;;;12.70;99.90;;;;;;4997526;28;20230;-64
2023/03/31 07:51:56;;;;;;;8.70;2.92;;;12.60;99.90;;;;;;4995861;28;20546;-63
2023/03/31 07:54:22;;;;;;;8.23;3.40;;;12.60;99.90;;;;;;5008188;28;20192;-64
2023/03/31 07:56:47;;;;;;;7.40;3.35;;;12.50;99.90;;;;;;4994839;28;20248;-69
2023/03/31 07:59:13;;;;;;;15.00;3.25;;;12.50;99.90;;;;;;5045193;28;21634;-64
2023/03/31 08:01:39;;;;;;;9.38;3.40;;;12.50;99.90;;;;;;5038592;28;20238;-65
2023/03/31 08:04:05;;;;;;;14.20;4.25;;;12.50;99.90;;;;;;5007163;28;20812;-66
2023/03/31 08:06:32;;;;;;;9.98;2.35;;;12.50;99.90;;;;;;5010363;28;20660;-66
2023/03/31 08:08:58;;;;;;;7.05;3.05;;;12.40;99.90;;;;;;5010800;28;20282;-66
2023/03/31 08:11:25;;;;;;;6.55;2.25;;;12.50;99.90;;;;;;5009906;28;20180;-65
2023/03/31 08:13:50;;;;;;;9.32;2.22;;;12.60;99.90;;;;;;5010933;28;20266;-65
2023/03/31 08:16:16;;;;;;;16.02;3.05;;;12.60;99.90;;;;;;5001783;28;20707;-66
2023/03/31 08:18:42;;;;;;;9.80;2.95;;;12.60;99.90;;;;;;5001125;28;20195;-65
2023/03/31 08:21:11;;;;;;;7.30;1.70;;;12.60;99.90;;;;;;5011308;28;20192;-64
2023/03/31 08:23:36;;;;;;;11.73;2.88;;;12.60;99.90;;;;;;5002896;28;20183;-66
2023/03/31 08:26:23;;;;;;;8.55;3.20;;;12.60;99.90;;;;;;5007631;28;20197;-65
2023/03/31 08:28:49;;;;;;;18.00;2.22;;;12.60;99.90;;;;;;4992574;28;20669;-66
2023/03/31 08:31:17;;;;;;;10.05;2.60;;;12.70;99.90;;;;;;5001263;28;20175;-65
2023/03/31 08:33:43;;;;;;;11.38;2.55;;;12.80;99.90;;;;;;5002593;28;20664;-65
2023/03/31 08:36:09;;;;;;;16.40;3.75;;;13.00;99.90;;;;;;5006433;28;20633;-66
2023/03/31 08:38:45;;;;;;;13.15;3.15;;;12.90;99.90;;;;;;5012006;28;20283;-66
2023/03/31 08:41:25;;;;;;;9.20;2.45;;;12.90;99.90;;;;;;5005531;28;20542;-66
2023/03/31 08:43:55;;;;;;;9.02;2.53;;;12.90;99.90;;;;;;5022037;28;20253;-66
2023/03/31 08:46:21;;;;;;;10.75;2.03;;;13.10;99.90;;;;;;5009888;28;20187;-67
2023/03/31 08:48:53;;;;;;;4.30;1.65;;;13.00;99.90;;;;;;5010586;28;20730;-66
2023/03/31 08:51:30;;;;;;;6.07;1.80;;;13.00;99.90;;;;;;5011137;28;20452;-66
2023/03/31 08:54:06;;;;;;;8.93;2.70;;;13.00;99.90;;;;;;5009433;28;20175;-69
2023/03/31 08:56:38;;;;;;;7.53;2.35;;;13.30;99.90;;;;;;5009442;28;20188;-64
2023/03/31 08:59:05;;;;;;;15.00;2.33;;;13.30;99.90;;;;;;5006857;28;20191;-66
2023/03/31 09:01:47;;;;;;;4.68;1.63;;;13.20;99.90;;;;;;4996837;28;20285;-66
2023/03/31 09:04:18;;;;;;;4.25;1.75;;;13.20;99.90;;;;;;5010441;28;20179;-68
2023/03/31 09:06:56;;;;;;;4.82;2.08;;;13.30;99.90;;;;;;4999598;28;20239;-64
2023/03/31 09:09:55;;;;;;;13.32;2.58;;;13.20;99.90;;;;;;5011136;28;20203;-66
2023/03/31 09:12:47;;;;;;;8.52;2.92;;;13.20;99.90;;;;;;4999220;28;20539;-66
2023/03/31 09:15:38;;;;;;;8.23;2.90;;;13.20;99.90;;;;;;5008448;28;20172;-66
2023/03/31 09:18:17;;;;;;;10.15;3.33;;;13.20;99.90;;;;;;4998746;28;20676;-66
2023/03/31 09:20:48;;;;;;;5.80;3.15;;;13.30;99.90;;;;;;5010200;28;20179;-65
2023/03/31 09:23:28;;;;;;;15.68;4.07;;;13.50;99.90;;;;;;5010649;28;20644;-66
2023/03/31 09:25:55;;;;;;;11.98;2.85;;;13.40;99.90;;;;;;5002083;28;20215;-65
2023/03/31 09:28:28;;;;;;;7.38;2.83;;;13.40;99.90;;;;;;5009727;28;20281;-64
2023/03/31 09:30:54;;;;;;;14.40;3.30;;;13.60;99.90;;;;;;4995980;28;20567;-64
2023/03/31 09:33:33;;;;;;;7.88;3.10;;;13.80;99.90;;;;;;5004662;28;20665;-66
2023/03/31 09:36:00;;;;;;;10.27;2.85;;;13.80;99.90;;;;;;4993042;28;20254;-66
2023/03/31 09:38:30;;;;;;;7.63;2.08;;;13.80;99.90;;;;;;5022296;28;20254;-65
2023/03/31 09:41:01;;;;;;;7.25;1.90;;;13.80;99.90;;;;;;5035817;28;20530;-64
2023/03/31 09:43:29;;;;;;;14.23;4.75;;;13.70;99.90;;;;;;5012734;28;20184;-65
2023/03/31 09:45:55;;;;;;;9.60;2.50;;;13.60;99.90;;;;;;5014305;28;20211;-64
2023/03/31 09:48:33;;;;;;;14.07;3.72;;;13.50;99.90;;;;;;5005150;28;20216;-66
2023/03/31 09:51:13;;;;;;;14.02;2.65;;;13.60;99.90;;;;;;5006811;28;20187;-66
2023/03/31 09:53:51;;;;;;;6.43;2.30;;;13.70;99.90;;;;;;5014947;28;20183;-64
2023/03/31 09:56:45;;;;;;;9.27;2.22;;;13.60;99.90;;;;;;5009768;28;20214;-66
2023/03/31 09:59:31;;;;;;;6.38;2.17;;;13.40;99.90;;;;;;5002950;28;20184;-66
2023/03/31 10:02:01;;;;;;;10.02;4.70;;;13.20;99.90;;;;;;5009760;28;20179;-64
2023/03/31 10:04:30;;;;;;;6.80;2.08;;;13.30;99.90;;;;;;5011537;28;20267;-64
2023/03/31 10:06:57;;;;;;;7.47;2.80;;;13.20;99.90;;;;;;5005574;28;20183;-67
2023/03/31 10:09:30;;;;;;;6.43;2.13;;;13.20;99.90;;;;;;4998717;28;20207;-65
2023/03/31 10:12:19;;;;;;;7.57;2.90;;;13.30;99.90;;;;;;5007421;28;20201;-72
2023/03/31 10:14:47;;;;;;;8.52;3.20;;;13.20;99.90;;;;;;5003849;28;20176;-64
2023/03/31 10:17:16;;;;;;;19.27;3.00;;;13.20;99.90;;;;;;5013605;28;20234;-64
2023/03/31 10:19:55;;;;;;;17.83;3.90;;;13.20;99.90;;;;;;5005906;28;20191;-65
2023/03/31 10:22:21;;;;;;;12.27;2.60;;;13.10;99.90;;;;;;5011482;28;20719;-64
2023/03/31 10:24:49;;;;;;;12.23;3.40;;;13.10;99.90;;;;;;5011712;28;20190;-65
2023/03/31 10:27:26;;;;;;;14.02;3.03;;;13.00;99.90;;;;;;5010454;28;20572;-65
2023/03/31 10:30:00;;;;;;;11.95;2.80;;;12.90;99.90;;;;;;4999762;28;20210;-65
2023/03/31 10:32:34;;;;;;;12.63;2.63;;;13.00;99.90;;;;;;5004974;28;20182;-66
2023/03/31 10:35:13;;;;;;;12.45;2.60;;;13.10;99.90;;;;;;5005035;28;20268;-63
2023/03/31 10:37:39;;;;;;;10.18;3.65;;;13.20;99.90;;;;;;5008988;28;20180;-65
2023/03/31 10:40:15;;;;;;;8.95;2.67;;;13.10;99.90;;;;;;5003616;28;20191;-64
2023/03/31 10:42:45;;;;;;;7.95;1.80;;;13.30;99.90;;;;;;5011001;28;20671;-70
2023/03/31 10:45:36;;;;;;;11.73;2.60;;;13.40;99.90;;;;;;5005561;28;20176;-66
2023/03/31 10:48:02;;;;;;;7.25;3.20;;;13.40;99.90;;;;;;5010598;28;20688;-66
2023/03/31 10:50:33;;;;;;;6.53;2.20;;;13.40;99.90;;;;;;5010606;28;20282;-65
2023/03/31 10:53:13;;;;;;;12.32;3.47;;;13.30;99.90;;;;;;5009643;28;20633;-67
2023/03/31 10:56:07;;;;;;;12.07;3.50;;;13.40;99.90;;;;;;5010946;28;20175;-66
2023/03/31 10:59:02;;;;;;;5.22;1.85;;;13.40;99.90;;;;;;5003564;28;20187;-65
2023/03/31 11:02:12;;;;;;;9.95;2.90;;;13.50;99.90;;;;;;5008003;28;20180;-66
2023/03/31 11:04:56;;;;;;;3.47;1.83;;;13.60;99.90;;;;;;5003973;28;20184;-65
2023/03/31 11:07:52;;;;;;;8.40;2.00;;;13.70;99.90;;;;;;5011203;28;20183;-67
2023/03/31 11:10:46;;;;;;;6.40;2.15;;;13.80;99.90;;;;;;5007087;28;20594;-72
2023/03/31 11:13:46;;;;;;;4.20;2.45;;;13.80;99.90;;;;;;5008625;28;20175;-67
2023/03/31 11:16:32;;;;;;;7.00;2.20;;;13.70;99.90;;;;;;4991863;28;21150;-66
2023/03/31 11:19:16;;;;;;;3.53;2.50;;;13.70;99.90;;;;;;4999164;28;20180;-66
2023/03/31 11:22:00;;;;;;;8.57;2.22;;;13.70;99.90;;;;;;5013083;28;20218;-66
2023/03/31 11:24:32;;;;;;;7.88;2.20;;;13.60;99.90;;;;;;5011158;28;20210;-67
2023/03/31 11:27:19;;;;;;;6.55;2.83;;;13.70;99.90;;;;;;5007121;28;20179;-65
2023/03/31 11:30:00;;;;;;;11.90;3.47;;;13.70;99.90;;;;;;5002251;28;20589;-67
2023/03/31 11:32:52;;;;;;;9.00;2.00;;;13.90;99.90;;;;;;5005914;28;20194;-65
2023/03/31 11:35:34;;;;;;;12.30;3.05;;;13.90;99.90;;;;;;5001785;28;20171;-67
2023/03/31 11:38:10;;;;;;;9.55;2.25;;;14.20;99.90;;;;;;5001289;28;20188;-69
2023/03/31 11:41:00;;;;;;;12.88;2.13;;;14.20;99.90;;;;;;5008758;28;20262;-66
2023/03/31 11:43:39;;;;;;;8.27;2.17;;;14.30;99.90;;;;;;5028366;28;20245;-66
2023/03/31 11:46:21;;;;;;;8.68;2.60;;;14.50;99.90;;;;;;5003714;28;20185;-66
2023/03/31 11:49:20;;;;;;;3.92;1.50;;;14.60;99.90;;;;;;5011612;28;20207;-66
2023/03/31 11:52:21;;;;;;;6.68;1.80;;;14.90;99.90;;;;;;5021472;28;20176;-65
2023/03/31 11:55:15;;;;;;;5.15;1.83;;;15.00;99.90;;;;;;4999735;28;20206;-65
2023/03/31 11:57:52;;;;;;;7.47;1.58;;;14.90;99.90;;;;;;5008513;28;20187;-65
2023/03/31 12:00:27;;;;;;;4.45;2.00;;;14.80;99.90;;;;;;5028627;28;20242;-67
2023/03/31 12:03:11;;;;;;;6.25;1.75;;;14.70;99.90;;;;;;5008600;28;20635;-65
2023/03/31 12:05:46;;;;;;;6.38;1.33;;;14.40;99.90;;;;;;5009535;28;20243;-65
2023/03/31 12:08:28;;;;;;;7.50;1.48;;;14.40;99.90;;;;;;5005620;28;20712;-68
2023/03/31 12:10:59;;;;;;;8.00;1.70;;;14.40;99.90;;;;;;5021051;28;20176;-66
2023/03/31 12:13:47;;;;;;;4.90;1.42;;;14.30;99.90;;;;;;5009570;28;20186;-66
2023/03/31 12:16:34;;;;;;;6.55;1.63;;;14.20;99.90;;;;;;5009893;28;20236;-66
2023/03/31 12:19:18;;;;;;;4.25;1.63;;;13.90;99.90;;;;;;4999380;28;20188;-66
2023/03/31 12:21:50;;;;;;;3.72;1.30;;;13.60;99.90;;;;;;5004604;28;20179;-66
2023/03/31 12:24:16;;;;;;;7.30;1.95;;;13.60;99.90;;;;;;5011338;28;20180;-66
2023/03/31 12:26:50;;;;;;;4.10;1.35;;;13.40;99.90;;;;;;5001983;28;20187;-66
2023/03/31 12:29:22;;;;;;;9.70;2.05;;;13.20;99.90;;;;;;4999797;28;20214;-66
2023/03/31 12:31:50;;;;;;;8.68;1.92;;;13.10;99.90;;;;;;5000530;28;20183;-67
2023/03/31 12:34:18;;;;;;;4.00;1.52;;;13.20;99.90;;;;;;4997683;28;20175;-66
2023/03/31 12:36:46;;;;;;;5.85;2.08;;;13.20;99.90;;;;;;4998826;28;20189;-64
2023/03/31 12:39:36;;;;;;;8.18;1.40;;;13.00;99.90;;;;;;5005401;28;20187;-65
2023/03/31 12:42:24;;;;;;;7.97;1.83;;;12.90;99.90;;;;;;5009245;28;20179;-68
2023/03/31 12:45:13;;;;;;;6.40;1.52;;;13.00;99.90;;;;;;5001465;28;20213;-67
2023/03/31 12:47:57;;;;;;;3.80;1.23;;;13.30;99.90;;;;;;5009046;28;20661;-68
2023/03/31 12:50:49;;;;;;;5.28;1.85;;;13.40;99.90;;;;;;5004326;28;20242;-71
2023/03/31 12:53:15;;;;;;;1.00;0.93;;;13.40;99.90;;;;;;5007068;28;20179;-67
2023/03/31 12:55:54;;;;;;;4.68;1.50;;;13.40;99.90;;;;;;5009694;28;20238;-70
2023/03/31 12:58:28;;;;;;;1.50;0.80;;;13.50;99.90;;;;;;5003945;28;20644;-64
2023/03/31 13:01:06;;;;;;;6.32;1.02;;;13.50;99.90;;;;;;5002428;28;20303;-67
2023/03/31 13:03:35;;;;;;;2.80;1.30;;;13.50;99.90;;;;;;5009917;28;20587;-66
2023/03/31 13:06:02;;;;;;;4.47;1.08;;;13.60;99.90;;;;;;5009531;28;20739;-65
2023/03/31 13:08:49;;;;;;;1.17;0.80;;;13.80;99.90;;;;;;5010011;28;20215;-66
2023/03/31 13:11:16;;;;;;;0.88;0.55;;;13.70;99.90;;;;;;5004415;28;20191;-65
2023/03/31 13:14:01;;;;;;;2.00;0.95;;;13.70;99.90;;;;;;5005140;28;20187;-64
2023/03/31 13:16:28;;;;;;;2.42;0.90;;;13.60;99.90;;;;;;5009700;28;20296;-65